sensor_id;sensor_type;location;lat;lon;timestamp;temperature;humidity
67777;DHT22;54576;52.020;5.536;2022-10-31T00:00:51;13.20;99.90
67777;DHT22;54576;52.020;5.536;2022-10-31T00:03:17;13.10;99.90
67777;DHT22;54576;52.020;5.536;2022-10-31T00:05:47;13.10;99.90
67777;DHT22;54576;52.020;5.536;2022-10-31T00:08:15;13.10;99.90
67777;DHT22;54576;52.020;5.536;2022-10-31T00:10:42;13.10;99.90
67777;DHT22;54576;52.020;5.536;2022-10-31T00:13:09;13.10;99.90
67777;DHT22;54576;52.020;5.536;2022-10-31T00:15:36;13.10;99.90
67777;DHT22;54576;52.020;5.536;2022-10-31T00:18:04;13.20;99.90
67777;DHT22;54576;52.020;5.536;2022-10-31T00:20:30;13.20;99.90
67777;DHT22;54576;52.020;5.536;2022-10-31T00:22:58;13.30;99.90
67777;DHT22;54576;52.020;5.536;2022-10-31T00:25:24;13.30;99.90
67777;DHT22;54576;52.020;5.536;2022-10-31T00:27:49;13.30;99.90
67777;DHT22;54576;52.020;5.536;2022-10-31T00:30:15;13.30;99.90
67777;DHT22;54576;52.020;5.536;2022-10-31T00:32:41;13.30;99.90
67777;DHT22;54576;52.020;5.536;2022-10-31T00:35:06;13.30;99.90
67777;DHT22;54576;52.020;5.536;2022-10-31T00:37:32;13.30;99.90
67777;DHT22;54576;52.020;5.536;2022-10-31T00:39:57;13.30;99.90
67777;DHT22;54576;52.020;5.536;2022-10-31T00:42:23;13.30;99.90
67777;DHT22;54576;52.020;5.536;2022-10-31T00:44:49;13.30;99.90
67777;DHT22;54576;52.020;5.536;2022-10-31T00:47:14;13.40;99.90
67777;DHT22;54576;52.020;5.536;2022-10-31T00:49:40;13.30;99.90
67777;DHT22;54576;52.020;5.536;2022-10-31T00:52:06;13.40;99.90
67777;DHT22;54576;52.020;5.536;2022-10-31T00:54:31;13.30;99.90
67777;DHT22;54576;52.020;5.536;2022-10-31T00:56:57;13.30;99.90
67777;DHT22;54576;52.020;5.536;2022-10-31T00:59:23;13.30;99.90
67777;DHT22;54576;52.020;5.536;2022-10-31T01:01:48;13.30;99.90
67777;DHT22;54576;52.020;5.536;2022-10-31T01:04:14;13.30;99.90
67777;DHT22;54576;52.020;5.536;2022-10-31T01:06:40;13.30;99.90
67777;DHT22;54576;52.020;5.536;2022-10-31T01:09:05;13.30;99.90
67777;DHT22;54576;52.020;5.536;2022-10-31T01:11:31;13.30;99.90
67777;DHT22;54576;52.020;5.536;2022-10-31T01:13:57;13.30;99.90
67777;DHT22;54576;52.020;5.536;2022-10-31T01:16:25;13.30;99.90
67777;DHT22;54576;52.020;5.536;2022-10-31T01:18:51;13.20;99.90
67777;DHT22;54576;52.020;5.536;2022-10-31T01:21:21;13.30;99.90
67777;DHT22;54576;52.020;5.536;2022-10-31T01:23:49;13.20;99.90
67777;DHT22;54576;52.020;5.536;2022-10-31T01:26:21;13.20;99.90
67777;DHT22;54576;52.020;5.536;2022-10-31T01:28:50;13.20;99.90
67777;DHT22;54576;52.020;5.536;2022-10-31T01:31:18;13.20;99.90
67777;DHT22;54576;52.020;5.536;2022-10-31T01:33:44;13.20;99.90
67777;DHT22;54576;52.020;5.536;2022-10-31T01:36:19;13.20;99.90
67777;DHT22;54576;52.020;5.536;2022-10-31T01:38:46;13.20;99.90
67777;DHT22;54576;52.020;5.536;2022-10-31T01:41:14;13.20;99.90
67777;DHT22;54576;52.020;5.536;2022-10-31T01:43:55;13.10;99.90
67777;DHT22;54576;52.020;5.536;2022-10-31T01:46:31;13.10;99.90
67777;DHT22;54576;52.020;5.536;2022-10-31T01:49:01;13.10;99.90
67777;DHT22;54576;52.020;5.536;2022-10-31T01:51:34;13.10;99.90
67777;DHT22;54576;52.020;5.536;2022-10-31T01:54:12;13.00;99.90
67777;DHT22;54576;52.020;5.536;2022-10-31T01:56:40;13.00;99.90
67777;DHT22;54576;52.020;5.536;2022-10-31T01:59:10;12.90;99.90
67777;DHT22;54576;52.020;5.536;2022-10-31T02:01:38;12.80;99.90
67777;DHT22;54576;52.020;5.536;2022-10-31T02:04:06;12.80;99.90
67777;DHT22;54576;52.020;5.536;2022-10-31T02:09:19;12.70;99.90
67777;DHT22;54576;52.020;5.536;2022-10-31T02:11:52;12.60;99.90
67777;DHT22;54576;52.020;5.536;2022-10-31T02:14:19;12.50;99.90
67777;DHT22;54576;52.020;5.536;2022-10-31T02:16:46;12.40;99.90
67777;DHT22;54576;52.020;5.536;2022-10-31T02:19:17;12.40;99.90
67777;DHT22;54576;52.020;5.536;2022-10-31T02:21:53;12.30;99.90
67777;DHT22;54576;52.020;5.536;2022-10-31T02:27:39;12.20;99.90
67777;DHT22;54576;52.020;5.536;2022-10-31T02:30:22;12.20;99.90
67777;DHT22;54576;52.020;5.536;2022-10-31T02:33:20;12.10;99.90
67777;DHT22;54576;52.020;5.536;2022-10-31T02:36:15;12.00;99.90
67777;DHT22;54576;52.020;5.536;2022-10-31T02:44:11;11.90;99.90
67777;DHT22;54576;52.020;5.536;2022-10-31T02:46:50;11.90;99.90
67777;DHT22;54576;52.020;5.536;2022-10-31T02:49:38;11.80;99.90
67777;DHT22;54576;52.020;5.536;2022-10-31T02:52:25;11.80;99.90
67777;DHT22;54576;52.020;5.536;2022-10-31T02:54:52;11.80;99.90
67777;DHT22;54576;52.020;5.536;2022-10-31T02:57:27;11.70;99.90
67777;DHT22;54576;52.020;5.536;2022-10-31T03:00:04;11.60;99.90
67777;DHT22;54576;52.020;5.536;2022-10-31T03:06:01;11.60;99.90
67777;DHT22;54576;52.020;5.536;2022-10-31T03:11:18;11.50;99.90
67777;DHT22;54576;52.020;5.536;2022-10-31T03:16:48;11.40;99.90
67777;DHT22;54576;52.020;5.536;2022-10-31T03:22:30;11.30;99.90
67777;DHT22;54576;52.020;5.536;2022-10-31T03:25:01;11.30;99.90
67777;DHT22;54576;52.020;5.536;2022-10-31T03:27:30;11.20;99.90
67777;DHT22;54576;52.020;5.536;2022-10-31T03:29:59;11.20;99.90
67777;DHT22;54576;52.020;5.536;2022-10-31T03:32:34;11.10;99.90
67777;DHT22;54576;52.020;5.536;2022-10-31T03:35:03;11.10;99.90
67777;DHT22;54576;52.020;5.536;2022-10-31T03:37:32;11.10;99.90
67777;DHT22;54576;52.020;5.536;2022-10-31T03:40:00;11.10;99.90
67777;DHT22;54576;52.020;5.536;2022-10-31T03:42:31;11.10;99.90
67777;DHT22;54576;52.020;5.536;2022-10-31T03:45:21;11.10;99.90
67777;DHT22;54576;52.020;5.536;2022-10-31T03:47:48;11.10;99.90
67777;DHT22;54576;52.020;5.536;2022-10-31T03:50:15;11.00;99.90
67777;DHT22;54576;52.020;5.536;2022-10-31T03:53:06;11.00;99.90
67777;DHT22;54576;52.020;5.536;2022-10-31T03:55:42;11.00;99.90
67777;DHT22;54576;52.020;5.536;2022-10-31T03:58:23;10.90;99.90
67777;DHT22;54576;52.020;5.536;2022-10-31T04:00:54;10.80;99.90
67777;DHT22;54576;52.020;5.536;2022-10-31T04:03:25;10.80;99.90
67777;DHT22;54576;52.020;5.536;2022-10-31T04:05:54;10.70;99.90
67777;DHT22;54576;52.020;5.536;2022-10-31T04:08:24;10.70;99.90
67777;DHT22;54576;52.020;5.536;2022-10-31T04:10:53;10.70;99.90
67777;DHT22;54576;52.020;5.536;2022-10-31T04:13:25;10.70;99.90
67777;DHT22;54576;52.020;5.536;2022-10-31T04:15:54;10.70;99.90
67777;DHT22;54576;52.020;5.536;2022-10-31T04:18:21;10.70;99.90
67777;DHT22;54576;52.020;5.536;2022-10-31T04:20:47;10.70;99.90
67777;DHT22;54576;52.020;5.536;2022-10-31T04:23:20;10.70;99.90
67777;DHT22;54576;52.020;5.536;2022-10-31T04:25:50;10.60;99.90
67777;DHT22;54576;52.020;5.536;2022-10-31T04:28:15;10.70;99.90
67777;DHT22;54576;52.020;5.536;2022-10-31T04:30:41;10.60;99.90
67777;DHT22;54576;52.020;5.536;2022-10-31T04:33:07;10.60;99.90
67777;DHT22;54576;52.020;5.536;2022-10-31T04:35:32;10.60;99.90
67777;DHT22;54576;52.020;5.536;2022-10-31T04:37:59;10.60;99.90
67777;DHT22;54576;52.020;5.536;2022-10-31T04:40:41;10.60;99.90
67777;DHT22;54576;52.020;5.536;2022-10-31T04:43:10;10.50;99.90
67777;DHT22;54576;52.020;5.536;2022-10-31T04:45:36;10.50;99.90
67777;DHT22;54576;52.020;5.536;2022-10-31T04:48:04;10.50;99.90
67777;DHT22;54576;52.020;5.536;2022-10-31T04:50:31;10.50;99.90
67777;DHT22;54576;52.020;5.536;2022-10-31T04:52:57;10.60;99.90
67777;DHT22;54576;52.020;5.536;2022-10-31T04:55:24;10.60;99.90
67777;DHT22;54576;52.020;5.536;2022-10-31T04:57:50;10.60;99.90
67777;DHT22;54576;52.020;5.536;2022-10-31T05:00:36;10.60;99.90
67777;DHT22;54576;52.020;5.536;2022-10-31T05:03:02;10.60;99.90
67777;DHT22;54576;52.020;5.536;2022-10-31T05:05:30;10.60;99.90
67777;DHT22;54576;52.020;5.536;2022-10-31T05:07:56;10.60;99.90
67777;DHT22;54576;52.020;5.536;2022-10-31T05:10:28;10.50;99.90
67777;DHT22;54576;52.020;5.536;2022-10-31T05:13:01;10.50;99.90
67777;DHT22;54576;52.020;5.536;2022-10-31T05:15:28;10.50;99.90
67777;DHT22;54576;52.020;5.536;2022-10-31T05:17:54;10.40;99.90
67777;DHT22;54576;52.020;5.536;2022-10-31T05:20:23;10.40;99.90
67777;DHT22;54576;52.020;5.536;2022-10-31T05:22:51;10.40;99.90
67777;DHT22;54576;52.020;5.536;2022-10-31T05:25:17;10.40;99.90
67777;DHT22;54576;52.020;5.536;2022-10-31T05:27:46;10.50;99.90
67777;DHT22;54576;52.020;5.536;2022-10-31T05:30:14;10.50;99.90
67777;DHT22;54576;52.020;5.536;2022-10-31T05:32:43;10.50;99.90
67777;DHT22;54576;52.020;5.536;2022-10-31T05:35:12;10.50;99.90
67777;DHT22;54576;52.020;5.536;2022-10-31T05:37:38;10.50;99.90
67777;DHT22;54576;52.020;5.536;2022-10-31T05:40:05;10.60;99.90
67777;DHT22;54576;52.020;5.536;2022-10-31T05:42:31;10.60;99.90
67777;DHT22;54576;52.020;5.536;2022-10-31T05:44:57;10.60;99.90
67777;DHT22;54576;52.020;5.536;2022-10-31T05:47:27;10.60;99.90
67777;DHT22;54576;52.020;5.536;2022-10-31T05:49:53;10.60;99.90
67777;DHT22;54576;52.020;5.536;2022-10-31T05:52:19;10.60;99.90
67777;DHT22;54576;52.020;5.536;2022-10-31T05:54:44;10.60;99.90
67777;DHT22;54576;52.020;5.536;2022-10-31T05:57:10;10.60;99.90
67777;DHT22;54576;52.020;5.536;2022-10-31T05:59:35;10.70;99.90
67777;DHT22;54576;52.020;5.536;2022-10-31T06:02:01;10.70;99.90
67777;DHT22;54576;52.020;5.536;2022-10-31T06:04:27;10.70;99.90
67777;DHT22;54576;52.020;5.536;2022-10-31T06:06:52;10.70;99.90
67777;DHT22;54576;52.020;5.536;2022-10-31T06:09:18;10.80;99.90
67777;DHT22;54576;52.020;5.536;2022-10-31T06:11:46;10.80;99.90
67777;DHT22;54576;52.020;5.536;2022-10-31T06:14:12;10.80;99.90
67777;DHT22;54576;52.020;5.536;2022-10-31T06:16:37;10.70;99.90
67777;DHT22;54576;52.020;5.536;2022-10-31T06:19:03;10.70;99.90
67777;DHT22;54576;52.020;5.536;2022-10-31T06:21:28;10.70;99.90
67777;DHT22;54576;52.020;5.536;2022-10-31T06:23:54;10.70;99.90
67777;DHT22;54576;52.020;5.536;2022-10-31T06:26:19;10.70;99.90
67777;DHT22;54576;52.020;5.536;2022-10-31T06:28:45;10.70;99.90
67777;DHT22;54576;52.020;5.536;2022-10-31T06:31:10;10.60;99.90
67777;DHT22;54576;52.020;5.536;2022-10-31T06:33:36;10.70;99.90
67777;DHT22;54576;52.020;5.536;2022-10-31T06:36:02;10.60;99.90
67777;DHT22;54576;52.020;5.536;2022-10-31T06:38:27;10.60;99.90
67777;DHT22;54576;52.020;5.536;2022-10-31T06:40:54;10.60;99.90
67777;DHT22;54576;52.020;5.536;2022-10-31T06:43:20;10.60;99.90
67777;DHT22;54576;52.020;5.536;2022-10-31T06:45:46;10.60;99.90
67777;DHT22;54576;52.020;5.536;2022-10-31T06:48:12;10.50;99.90
67777;DHT22;54576;52.020;5.536;2022-10-31T06:50:38;10.50;99.90
67777;DHT22;54576;52.020;5.536;2022-10-31T06:53:03;10.50;99.90
67777;DHT22;54576;52.020;5.536;2022-10-31T06:55:29;10.50;99.90
67777;DHT22;54576;52.020;5.536;2022-10-31T06:57:56;10.50;99.90
67777;DHT22;54576;52.020;5.536;2022-10-31T07:00:25;10.50;99.90
67777;DHT22;54576;52.020;5.536;2022-10-31T07:03:11;10.50;99.90
67777;DHT22;54576;52.020;5.536;2022-10-31T07:05:37;10.50;99.90
67777;DHT22;54576;52.020;5.536;2022-10-31T07:08:05;10.50;99.90
67777;DHT22;54576;52.020;5.536;2022-10-31T07:10:33;10.60;99.90
67777;DHT22;54576;52.020;5.536;2022-10-31T07:13:01;10.60;99.90
67777;DHT22;54576;52.020;5.536;2022-10-31T07:15:28;10.60;99.90
67777;DHT22;54576;52.020;5.536;2022-10-31T07:17:59;10.70;99.90
67777;DHT22;54576;52.020;5.536;2022-10-31T07:20:26;10.70;99.90
67777;DHT22;54576;52.020;5.536;2022-10-31T07:22:52;10.70;99.90
67777;DHT22;54576;52.020;5.536;2022-10-31T07:25:18;10.80;99.90
67777;DHT22;54576;52.020;5.536;2022-10-31T07:27:43;10.80;99.90
67777;DHT22;54576;52.020;5.536;2022-10-31T07:30:10;10.90;99.90
67777;DHT22;54576;52.020;5.536;2022-10-31T07:32:41;11.00;99.90
67777;DHT22;54576;52.020;5.536;2022-10-31T07:35:09;11.00;99.90
67777;DHT22;54576;52.020;5.536;2022-10-31T07:37:35;11.00;99.90
67777;DHT22;54576;52.020;5.536;2022-10-31T07:40:05;11.10;99.90
67777;DHT22;54576;52.020;5.536;2022-10-31T07:42:41;11.10;99.90
67777;DHT22;54576;52.020;5.536;2022-10-31T07:45:10;11.20;99.90
67777;DHT22;54576;52.020;5.536;2022-10-31T07:47:43;11.20;99.90
67777;DHT22;54576;52.020;5.536;2022-10-31T07:50:11;11.30;99.90
67777;DHT22;54576;52.020;5.536;2022-10-31T07:52:37;11.40;99.90
67777;DHT22;54576;52.020;5.536;2022-10-31T07:55:03;11.50;99.90
67777;DHT22;54576;52.020;5.536;2022-10-31T07:57:29;11.50;99.90
67777;DHT22;54576;52.020;5.536;2022-10-31T07:59:54;11.60;99.90
67777;DHT22;54576;52.020;5.536;2022-10-31T08:02:20;11.70;99.90
67777;DHT22;54576;52.020;5.536;2022-10-31T08:04:46;11.80;99.90
67777;DHT22;54576;52.020;5.536;2022-10-31T08:07:12;11.80;99.90
67777;DHT22;54576;52.020;5.536;2022-10-31T08:09:38;11.90;99.90
67777;DHT22;54576;52.020;5.536;2022-10-31T08:12:04;12.00;99.90
67777;DHT22;54576;52.020;5.536;2022-10-31T08:14:29;12.00;99.90
67777;DHT22;54576;52.020;5.536;2022-10-31T08:16:55;12.10;99.90
67777;DHT22;54576;52.020;5.536;2022-10-31T08:19:20;12.10;99.90
67777;DHT22;54576;52.020;5.536;2022-10-31T08:21:46;12.10;99.90
67777;DHT22;54576;52.020;5.536;2022-10-31T08:24:11;12.20;99.90
67777;DHT22;54576;52.020;5.536;2022-10-31T08:26:37;12.20;99.90
67777;DHT22;54576;52.020;5.536;2022-10-31T08:29:03;12.30;99.90
67777;DHT22;54576;52.020;5.536;2022-10-31T08:31:29;12.40;99.90
67777;DHT22;54576;52.020;5.536;2022-10-31T08:33:54;12.50;99.90
67777;DHT22;54576;52.020;5.536;2022-10-31T08:36:21;12.60;99.90
67777;DHT22;54576;52.020;5.536;2022-10-31T08:38:47;12.70;99.90
67777;DHT22;54576;52.020;5.536;2022-10-31T08:41:13;12.70;99.90
67777;DHT22;54576;52.020;5.536;2022-10-31T08:43:39;12.90;99.90
67777;DHT22;54576;52.020;5.536;2022-10-31T08:46:05;12.90;99.90
67777;DHT22;54576;52.020;5.536;2022-10-31T08:48:31;13.00;99.90
67777;DHT22;54576;52.020;5.536;2022-10-31T08:50:58;13.10;99.90
67777;DHT22;54576;52.020;5.536;2022-10-31T08:53:24;13.20;99.90
67777;DHT22;54576;52.020;5.536;2022-10-31T08:55:50;13.30;99.90
67777;DHT22;54576;52.020;5.536;2022-10-31T08:58:17;13.40;99.90
67777;DHT22;54576;52.020;5.536;2022-10-31T09:00:44;13.50;99.90
67777;DHT22;54576;52.020;5.536;2022-10-31T09:03:12;13.60;99.90
67777;DHT22;54576;52.020;5.536;2022-10-31T09:05:38;13.60;99.90
67777;DHT22;54576;52.020;5.536;2022-10-31T09:08:05;13.70;99.90
67777;DHT22;54576;52.020;5.536;2022-10-31T09:10:32;13.80;99.90
67777;DHT22;54576;52.020;5.536;2022-10-31T09:13:00;13.80;99.90
67777;DHT22;54576;52.020;5.536;2022-10-31T09:15:27;13.90;99.90
67777;DHT22;54576;52.020;5.536;2022-10-31T09:17:53;14.00;99.90
67777;DHT22;54576;52.020;5.536;2022-10-31T09:20:19;14.00;99.90
67777;DHT22;54576;52.020;5.536;2022-10-31T09:22:45;14.00;99.90
67777;DHT22;54576;52.020;5.536;2022-10-31T09:25:11;14.10;99.90
67777;DHT22;54576;52.020;5.536;2022-10-31T09:27:37;14.20;99.90
67777;DHT22;54576;52.020;5.536;2022-10-31T09:30:03;14.20;99.90
67777;DHT22;54576;52.020;5.536;2022-10-31T09:32:29;14.20;99.90
67777;DHT22;54576;52.020;5.536;2022-10-31T09:34:55;14.30;99.90
67777;DHT22;54576;52.020;5.536;2022-10-31T09:37:20;14.30;99.90
67777;DHT22;54576;52.020;5.536;2022-10-31T09:39:46;14.40;99.90
67777;DHT22;54576;52.020;5.536;2022-10-31T09:51:04;14.80;99.90
67777;DHT22;54576;52.020;5.536;2022-10-31T09:53:54;14.80;99.90
67777;DHT22;54576;52.020;5.536;2022-10-31T09:56:22;14.90;99.90
67777;DHT22;54576;52.020;5.536;2022-10-31T09:58:58;15.00;99.90
67777;DHT22;54576;52.020;5.536;2022-10-31T10:03:55;14.90;99.90
67777;DHT22;54576;52.020;5.536;2022-10-31T10:06:26;15.00;99.90
67777;DHT22;54576;52.020;5.536;2022-10-31T10:08:52;15.00;99.90
67777;DHT22;54576;52.020;5.536;2022-10-31T10:11:36;15.00;99.90
67777;DHT22;54576;52.020;5.536;2022-10-31T10:24:38;15.40;99.90
67777;DHT22;54576;52.020;5.536;2022-10-31T10:32:22;15.60;99.90
67777;DHT22;54576;52.020;5.536;2022-10-31T10:34:52;15.50;99.90
67777;DHT22;54576;52.020;5.536;2022-10-31T10:37:25;15.50;99.90
67777;DHT22;54576;52.020;5.536;2022-10-31T10:40:13;15.40;99.90
67777;DHT22;54576;52.020;5.536;2022-10-31T10:54:43;15.50;99.90
67777;DHT22;54576;52.020;5.536;2022-10-31T10:57:26;15.50;99.90
67777;DHT22;54576;52.020;5.536;2022-10-31T10:59:53;15.50;99.90
67777;DHT22;54576;52.020;5.536;2022-10-31T11:02:22;15.60;99.90
67777;DHT22;54576;52.020;5.536;2022-10-31T11:04:57;15.60;99.90
67777;DHT22;54576;52.020;5.536;2022-10-31T11:07:23;15.70;99.90
67777;DHT22;54576;52.020;5.536;2022-10-31T11:09:48;15.60;99.90
67777;DHT22;54576;52.020;5.536;2022-10-31T11:12:21;15.60;99.90
67777;DHT22;54576;52.020;5.536;2022-10-31T11:14:59;15.60;99.90
67777;DHT22;54576;52.020;5.536;2022-10-31T11:17:32;15.60;99.90
67777;DHT22;54576;52.020;5.536;2022-10-31T11:22:29;15.70;99.90
67777;DHT22;54576;52.020;5.536;2022-10-31T11:24:55;15.70;99.90
67777;DHT22;54576;52.020;5.536;2022-10-31T11:27:23;15.80;99.90
67777;DHT22;54576;52.020;5.536;2022-10-31T11:29:49;15.80;99.90
67777;DHT22;54576;52.020;5.536;2022-10-31T11:32:24;15.80;99.90
67777;DHT22;54576;52.020;5.536;2022-10-31T11:34:54;15.90;99.90
67777;DHT22;54576;52.020;5.536;2022-10-31T11:37:25;15.90;99.90
67777;DHT22;54576;52.020;5.536;2022-10-31T11:40:18;15.90;99.90
67777;DHT22;54576;52.020;5.536;2022-10-31T11:42:45;16.00;99.90
67777;DHT22;54576;52.020;5.536;2022-10-31T11:45:26;16.00;99.90
67777;DHT22;54576;52.020;5.536;2022-10-31T11:47:55;16.00;99.90
67777;DHT22;54576;52.020;5.536;2022-10-31T11:50:34;16.10;99.90
67777;DHT22;54576;52.020;5.536;2022-10-31T11:53:02;16.10;99.90
67777;DHT22;54576;52.020;5.536;2022-10-31T11:55:39;16.00;99.90
67777;DHT22;54576;52.020;5.536;2022-10-31T11:58:24;16.10;99.90
67777;DHT22;54576;52.020;5.536;2022-10-31T12:00:53;16.10;99.90
67777;DHT22;54576;52.020;5.536;2022-10-31T12:03:47;16.20;99.90
67777;DHT22;54576;52.020;5.536;2022-10-31T12:06:24;16.20;99.90
67777;DHT22;54576;52.020;5.536;2022-10-31T12:08:52;16.20;99.90
67777;DHT22;54576;52.020;5.536;2022-10-31T12:20:10;16.40;99.90
67777;DHT22;54576;52.020;5.536;2022-10-31T12:22:52;16.50;99.90
67777;DHT22;54576;52.020;5.536;2022-10-31T12:33:19;16.70;99.90
67777;DHT22;54576;52.020;5.536;2022-10-31T12:38:48;17.00;99.90
67777;DHT22;54576;52.020;5.536;2022-10-31T12:41:39;17.00;99.90
67777;DHT22;54576;52.020;5.536;2022-10-31T12:58:09;17.20;99.90
67777;DHT22;54576;52.020;5.536;2022-10-31T13:00:38;17.10;99.90
67777;DHT22;54576;52.020;5.536;2022-10-31T13:03:25;17.20;99.90
67777;DHT22;54576;52.020;5.536;2022-10-31T13:05:58;17.20;99.90
67777;DHT22;54576;52.020;5.536;2022-10-31T13:08:30;17.20;99.90
67777;DHT22;54576;52.020;5.536;2022-10-31T13:11:24;17.20;99.90
67777;DHT22;54576;52.020;5.536;2022-10-31T13:16:43;17.20;99.90
67777;DHT22;54576;52.020;5.536;2022-10-31T13:19:36;17.30;99.90
67777;DHT22;54576;52.020;5.536;2022-10-31T13:24:39;17.20;99.90
67777;DHT22;54576;52.020;5.536;2022-10-31T13:27:24;17.20;99.90
67777;DHT22;54576;52.020;5.536;2022-10-31T13:30:00;17.20;99.90
67777;DHT22;54576;52.020;5.536;2022-10-31T13:32:40;17.20;99.90
67777;DHT22;54576;52.020;5.536;2022-10-31T13:35:24;17.20;99.90
67777;DHT22;54576;52.020;5.536;2022-10-31T13:38:20;17.20;99.90
67777;DHT22;54576;52.020;5.536;2022-10-31T13:40:50;17.20;99.90
67777;DHT22;54576;52.020;5.536;2022-10-31T13:43:58;17.20;99.90
67777;DHT22;54576;52.020;5.536;2022-10-31T13:46:34;17.20;99.90
67777;DHT22;54576;52.020;5.536;2022-10-31T13:49:00;17.30;99.90
67777;DHT22;54576;52.020;5.536;2022-10-31T13:51:29;17.30;99.90
67777;DHT22;54576;52.020;5.536;2022-10-31T13:56:29;17.30;99.90
67777;DHT22;54576;52.020;5.536;2022-10-31T13:58:59;17.30;99.90
67777;DHT22;54576;52.020;5.536;2022-10-31T14:01:26;17.30;99.90
67777;DHT22;54576;52.020;5.536;2022-10-31T14:06:38;17.40;99.90
67777;DHT22;54576;52.020;5.536;2022-10-31T14:09:04;17.40;99.90
67777;DHT22;54576;52.020;5.536;2022-10-31T14:11:30;17.30;99.90
67777;DHT22;54576;52.020;5.536;2022-10-31T14:13:58;17.40;99.90
67777;DHT22;54576;52.020;5.536;2022-10-31T14:16:30;17.40;99.90
67777;DHT22;54576;52.020;5.536;2022-10-31T14:19:13;17.40;99.90
67777;DHT22;54576;52.020;5.536;2022-10-31T14:21:42;17.40;99.90
67777;DHT22;54576;52.020;5.536;2022-10-31T14:24:35;17.30;99.90
67777;DHT22;54576;52.020;5.536;2022-10-31T14:27:04;17.30;99.90
67777;DHT22;54576;52.020;5.536;2022-10-31T14:29:34;17.30;99.90
67777;DHT22;54576;52.020;5.536;2022-10-31T14:34:34;17.20;99.90
67777;DHT22;54576;52.020;5.536;2022-10-31T14:42:50;17.20;99.90
67777;DHT22;54576;52.020;5.536;2022-10-31T14:46:02;17.10;99.90
67777;DHT22;54576;52.020;5.536;2022-10-31T14:51:21;17.10;99.90
67777;DHT22;54576;52.020;5.536;2022-10-31T14:53:51;17.10;99.90
67777;DHT22;54576;52.020;5.536;2022-10-31T14:56:31;17.00;99.90
67777;DHT22;54576;52.020;5.536;2022-10-31T14:59:02;17.00;99.90
67777;DHT22;54576;52.020;5.536;2022-10-31T15:01:32;17.00;99.90
67777;DHT22;54576;52.020;5.536;2022-10-31T15:04:04;17.00;99.90
67777;DHT22;54576;52.020;5.536;2022-10-31T15:06:41;16.90;99.90
67777;DHT22;54576;52.020;5.536;2022-10-31T15:09:31;16.90;99.90
67777;DHT22;54576;52.020;5.536;2022-10-31T15:12:01;16.90;99.90
67777;DHT22;54576;52.020;5.536;2022-10-31T15:14:40;16.80;99.90
67777;DHT22;54576;52.020;5.536;2022-10-31T15:17:05;16.80;99.90
67777;DHT22;54576;52.020;5.536;2022-10-31T15:19:33;16.80;99.90
67777;DHT22;54576;52.020;5.536;2022-10-31T15:22:07;16.80;99.90
67777;DHT22;54576;52.020;5.536;2022-10-31T15:24:37;16.80;99.90
67777;DHT22;54576;52.020;5.536;2022-10-31T15:27:04;16.80;99.90
67777;DHT22;54576;52.020;5.536;2022-10-31T15:29:30;16.70;99.90
67777;DHT22;54576;52.020;5.536;2022-10-31T15:31:58;16.70;99.90
67777;DHT22;54576;52.020;5.536;2022-10-31T15:37:01;16.70;99.90
67777;DHT22;54576;52.020;5.536;2022-10-31T15:39:27;16.70;99.90
67777;DHT22;54576;52.020;5.536;2022-10-31T15:41:57;16.60;99.90
67777;DHT22;54576;52.020;5.536;2022-10-31T15:44:25;16.60;99.90
67777;DHT22;54576;52.020;5.536;2022-10-31T15:54:32;16.50;99.90
67777;DHT22;54576;52.020;5.536;2022-10-31T15:56:57;16.50;99.90
67777;DHT22;54576;52.020;5.536;2022-10-31T15:59:26;16.50;99.90
67777;DHT22;54576;52.020;5.536;2022-10-31T16:02:11;16.40;99.90
67777;DHT22;54576;52.020;5.536;2022-10-31T16:04:37;16.40;99.90
67777;DHT22;54576;52.020;5.536;2022-10-31T16:07:17;16.40;99.90
67777;DHT22;54576;52.020;5.536;2022-10-31T16:12:16;16.30;99.90
67777;DHT22;54576;52.020;5.536;2022-10-31T16:14:42;16.30;99.90
67777;DHT22;54576;52.020;5.536;2022-10-31T16:17:16;16.30;99.90
67777;DHT22;54576;52.020;5.536;2022-10-31T16:19:56;16.30;99.90
67777;DHT22;54576;52.020;5.536;2022-10-31T16:22:31;16.20;99.90
67777;DHT22;54576;52.020;5.536;2022-10-31T16:25:02;16.20;99.90
67777;DHT22;54576;52.020;5.536;2022-10-31T16:27:33;16.10;99.90
67777;DHT22;54576;52.020;5.536;2022-10-31T16:30:01;16.10;99.90
67777;DHT22;54576;52.020;5.536;2022-10-31T16:32:51;16.00;99.90
67777;DHT22;54576;52.020;5.536;2022-10-31T16:35:28;16.00;99.90
67777;DHT22;54576;52.020;5.536;2022-10-31T16:37:57;15.90;99.90
67777;DHT22;54576;52.020;5.536;2022-10-31T16:40:23;15.80;99.90
67777;DHT22;54576;52.020;5.536;2022-10-31T16:42:49;15.80;99.90
67777;DHT22;54576;52.020;5.536;2022-10-31T16:45:20;15.70;99.90
67777;DHT22;54576;52.020;5.536;2022-10-31T16:47:46;15.70;99.90
67777;DHT22;54576;52.020;5.536;2022-10-31T16:50:16;15.70;99.90
67777;DHT22;54576;52.020;5.536;2022-10-31T16:52:42;15.60;99.90
67777;DHT22;54576;52.020;5.536;2022-10-31T16:55:11;15.60;99.90
67777;DHT22;54576;52.020;5.536;2022-10-31T16:57:38;15.60;99.90
67777;DHT22;54576;52.020;5.536;2022-10-31T17:00:09;15.60;99.90
67777;DHT22;54576;52.020;5.536;2022-10-31T17:02:37;15.60;99.90
67777;DHT22;54576;52.020;5.536;2022-10-31T17:05:03;15.60;99.90
67777;DHT22;54576;52.020;5.536;2022-10-31T17:07:29;15.70;99.90
67777;DHT22;54576;52.020;5.536;2022-10-31T17:09:55;15.60;99.90
67777;DHT22;54576;52.020;5.536;2022-10-31T17:12:22;15.60;99.90
67777;DHT22;54576;52.020;5.536;2022-10-31T17:14:50;15.60;99.90
67777;DHT22;54576;52.020;5.536;2022-10-31T17:17:17;15.60;99.90
67777;DHT22;54576;52.020;5.536;2022-10-31T17:19:42;15.60;99.90
67777;DHT22;54576;52.020;5.536;2022-10-31T17:22:12;15.60;99.90
67777;DHT22;54576;52.020;5.536;2022-10-31T17:24:38;15.60;99.90
67777;DHT22;54576;52.020;5.536;2022-10-31T17:27:03;15.50;99.90
67777;DHT22;54576;52.020;5.536;2022-10-31T17:29:29;15.50;99.90
67777;DHT22;54576;52.020;5.536;2022-10-31T17:31:55;15.50;99.90
67777;DHT22;54576;52.020;5.536;2022-10-31T17:34:20;15.40;99.90
67777;DHT22;54576;52.020;5.536;2022-10-31T17:36:50;15.40;99.90
67777;DHT22;54576;52.020;5.536;2022-10-31T17:39:17;15.40;99.90
67777;DHT22;54576;52.020;5.536;2022-10-31T17:41:43;15.30;99.90
67777;DHT22;54576;52.020;5.536;2022-10-31T17:44:12;15.30;99.90
67777;DHT22;54576;52.020;5.536;2022-10-31T17:46:38;15.20;99.90
67777;DHT22;54576;52.020;5.536;2022-10-31T17:49:04;15.20;99.90
67777;DHT22;54576;52.020;5.536;2022-10-31T17:51:31;15.20;99.90
67777;DHT22;54576;52.020;5.536;2022-10-31T17:53:57;15.10;99.90
67777;DHT22;54576;52.020;5.536;2022-10-31T17:56:23;15.10;99.90
67777;DHT22;54576;52.020;5.536;2022-10-31T17:58:49;15.00;99.90
67777;DHT22;54576;52.020;5.536;2022-10-31T18:01:16;15.00;99.90